METAR

ENBN 101920Z 20005KT 9999 FEW015 12/08 Q1008

ENMS 101920Z 34004KT 9999 VCSH FEW032 BKN045 13/08 Q1007 RMK WIND 412FT VRB04KT

ENNM 101920Z 16005KT 9999 VCSH SCT033 SCT060 15/08 Q1008

ENOL 101920Z 16003KT 9999 -SHRA FEW014 BKN025 12/08 Q1009 TEMPO SHRA

ENST 101920Z 19008KT 9999 FEW016 FEW060 13/07 Q1007 RMK WIND 300FT 17011KT

ENVA 101920Z 27014KT 9999 FEW039 SCT049 BKN066 13/09 Q1008 TEMPO SHRA RMK WIND 670FT 28016KT



TAF

TAF ENVA 101700Z 1018/1118 27010KT 9999 FEW030TCU SCT050 TEMPO 1018/1118 SHRA SCT025CB BKN040 PROB40 1022/1108 VRB06KT TEMPO 1110/1118 28020KT